Time;durP1;ratioP1;P1;durP2;ratioP2;P2;SDS_P1;SDS_P2;PMS_P1;PMS_P2;Temp;Humidity;BMP_temperature;BMP_pressure;BME280_temperature;BME280_humidity;BME280_pressure;Samples;Min_cycle;Max_cycle;Signal;HPM_P1;HPM_P2
2022/05/20 00:01:58;;;;;;;5.90;5.20;;;18.50;99.90;;;;;;5086256;28;20631;-88
2022/05/20 00:04:25;;;;;;;4.83;4.50;;;18.50;99.90;;;;;;5083012;28;20660;-87
2022/05/20 00:06:52;;;;;;;6.40;4.63;;;18.40;99.90;;;;;;5077831;28;20632;-86
2022/05/20 00:09:18;;;;;;;6.83;5.17;;;18.40;99.90;;;;;;5083513;28;20620;-86
2022/05/20 00:11:45;;;;;;;5.33;5.00;;;18.30;99.90;;;;;;5081203;28;21006;-86
2022/05/20 00:14:13;;;;;;;7.07;5.50;;;18.30;99.90;;;;;;5077348;28;20666;-86
2022/05/20 00:16:40;;;;;;;6.47;5.90;;;18.30;99.90;;;;;;5077308;28;21146;-86
2022/05/20 00:19:08;;;;;;;9.13;5.13;;;18.20;99.90;;;;;;5080911;28;20663;-86
2022/05/20 00:21:36;;;;;;;5.70;5.30;;;18.20;99.90;;;;;;5081159;28;20711;-86
2022/05/20 00:24:04;;;;;;;5.40;5.00;;;18.10;99.90;;;;;;5081929;28;20617;-86
2022/05/20 00:26:31;;;;;;;6.10;5.53;;;18.10;99.90;;;;;;5081536;28;20631;-86
2022/05/20 00:28:58;;;;;;;5.70;5.20;;;18.10;99.90;;;;;;5083281;28;20624;-87
2022/05/20 00:31:27;;;;;;;6.43;5.87;;;18.00;99.90;;;;;;5080796;28;20742;-86
2022/05/20 00:33:55;;;;;;;6.00;5.50;;;18.00;99.90;;;;;;5080303;28;21324;-86
2022/05/20 00:36:21;;;;;;;5.47;4.97;;;18.00;99.90;;;;;;5083798;28;21181;-86
2022/05/20 00:38:48;;;;;;;6.10;5.60;;;18.00;99.90;;;;;;5085658;28;21015;-86
2022/05/20 00:41:16;;;;;;;6.23;5.20;;;17.90;99.90;;;;;;5086694;28;21214;-86
2022/05/20 00:43:45;;;;;;;5.43;4.93;;;17.90;99.90;;;;;;5084821;28;20592;-86
2022/05/20 00:46:14;;;;;;;6.10;5.27;;;17.80;99.90;;;;;;5086443;28;20643;-85
2022/05/20 00:48:42;;;;;;;6.30;5.10;;;17.80;99.90;;;;;;5083708;28;20619;-86
2022/05/20 00:51:12;;;;;;;6.33;5.77;;;17.80;99.90;;;;;;5084893;28;20651;-86
2022/05/20 00:53:45;;;;;;;6.20;5.70;;;17.80;99.90;;;;;;5085151;28;20623;-86
2022/05/20 00:56:16;;;;;;;6.07;5.50;;;17.70;99.90;;;;;;5082945;28;20632;-86
2022/05/20 00:58:43;;;;;;;6.83;5.00;;;17.70;99.90;;;;;;5082570;28;20665;-86
2022/05/20 01:01:11;;;;;;;6.17;5.60;;;17.60;99.90;;;;;;5084156;28;20643;-86
2022/05/20 01:03:39;;;;;;;5.80;5.40;;;17.60;99.90;;;;;;5088707;28;20628;-86
2022/05/20 01:06:09;;;;;;;6.77;6.17;;;17.50;99.90;;;;;;5081188;28;20629;-86
2022/05/20 01:08:38;;;;;;;5.20;4.70;;;17.50;99.90;;;;;;5087864;28;21610;-87
2022/05/20 01:11:05;;;;;;;5.70;4.93;;;17.40;99.90;;;;;;5087972;28;21271;-86
2022/05/20 01:13:33;;;;;;;6.80;5.73;;;17.50;99.90;;;;;;5087283;28;20624;-86
2022/05/20 01:16:03;;;;;;;6.17;5.67;;;17.50;99.90;;;;;;5088038;28;21158;-86
2022/05/20 01:18:32;;;;;;;6.40;5.40;;;17.40;99.90;;;;;;5085183;28;20692;-86
2022/05/20 01:20:59;;;;;;;6.43;5.87;;;17.40;99.90;;;;;;5083024;28;20654;-86
2022/05/20 01:23:29;;;;;;;6.60;5.33;;;17.40;99.90;;;;;;5087137;28;20627;-87
2022/05/20 01:25:58;;;;;;;6.17;5.63;;;17.40;99.90;;;;;;5081907;28;21084;-86
2022/05/20 01:28:27;;;;;;;5.90;5.40;;;17.30;99.90;;;;;;5081808;28;20675;-86
2022/05/20 01:30:56;;;;;;;6.27;5.03;;;17.30;99.90;;;;;;5083128;28;21013;-86
2022/05/20 01:33:25;;;;;;;6.30;5.20;;;17.30;99.90;;;;;;5084671;28;20981;-86
2022/05/20 01:35:52;;;;;;;6.03;5.33;;;17.30;99.90;;;;;;5087018;28;20632;-86
2022/05/20 01:38:19;;;;;;;6.07;5.57;;;17.20;99.90;;;;;;5083488;28;21257;-86
2022/05/20 01:40:50;;;;;;;7.60;5.00;;;17.20;99.90;;;;;;5085241;28;20647;-86
2022/05/20 01:43:34;;;;;;;8.80;6.10;;;17.20;99.90;;;;;;5086849;28;20636;-86
2022/05/20 01:46:10;;;;;;;7.03;5.60;;;17.20;99.90;;;;;;5088274;28;20620;-86
2022/05/20 01:48:40;;;;;;;6.53;5.83;;;17.20;99.90;;;;;;5085925;28;20603;-86
2022/05/20 01:51:13;;;;;;;6.03;5.43;;;17.20;99.90;;;;;;5090146;28;21016;-85
2022/05/20 01:53:46;;;;;;;6.63;6.00;;;17.10;99.90;;;;;;5087162;28;20628;-85
2022/05/20 01:56:19;;;;;;;6.33;5.63;;;17.10;99.90;;;;;;5090782;28;20639;-86
2022/05/20 01:58:52;;;;;;;6.00;5.10;;;17.10;99.90;;;;;;5087162;28;20655;-86
2022/05/20 02:01:27;;;;;;;6.60;6.10;;;17.10;99.90;;;;;;5083826;28;20644;-86
2022/05/20 02:03:58;;;;;;;7.20;5.93;;;17.00;99.90;;;;;;5082840;28;21336;-86
2022/05/20 02:06:32;;;;;;;6.43;5.67;;;17.00;99.90;;;;;;5080272;28;20617;-85
2022/05/20 02:09:01;;;;;;;5.60;5.00;;;16.90;99.90;;;;;;5082769;28;20964;-86
2022/05/20 02:11:34;;;;;;;5.80;5.17;;;16.90;99.90;;;;;;5084856;28;20663;-86
2022/05/20 02:14:06;;;;;;;6.47;5.87;;;16.90;99.90;;;;;;5083498;28;20616;-86
2022/05/20 02:16:35;;;;;;;6.23;5.80;;;16.90;99.90;;;;;;5081990;28;20630;-86
2022/05/20 02:19:09;;;;;;;6.73;6.20;;;16.90;99.90;;;;;;5082104;28;20663;-86
2022/05/20 02:21:40;;;;;;;7.50;6.30;;;16.90;99.90;;;;;;5082651;28;21135;-86
2022/05/20 02:24:12;;;;;;;5.70;5.17;;;16.80;99.90;;;;;;5083249;28;21171;-86
2022/05/20 02:26:45;;;;;;;6.63;5.90;;;16.80;99.90;;;;;;5086766;28;20623;-86
2022/05/20 02:29:17;;;;;;;6.47;5.97;;;16.80;99.90;;;;;;5081024;28;20624;-86
2022/05/20 02:31:56;;;;;;;8.00;6.33;;;16.80;99.90;;;;;;5080211;28;20625;-85
2022/05/20 02:34:23;;;;;;;7.23;6.53;;;16.80;99.90;;;;;;5082353;28;20624;-86
2022/05/20 02:36:50;;;;;;;8.03;7.40;;;16.70;99.90;;;;;;5084640;28;20631;-86
2022/05/20 02:39:16;;;;;;;6.37;5.87;;;16.70;99.90;;;;;;5086512;28;20668;-85
2022/05/20 02:41:46;;;;;;;6.87;6.17;;;16.70;99.90;;;;;;5083612;28;20621;-86
2022/05/20 02:44:14;;;;;;;6.87;6.20;;;16.70;99.90;;;;;;5085531;28;20623;-86
2022/05/20 02:46:42;;;;;;;7.07;6.43;;;16.70;99.90;;;;;;5081757;28;20609;-86
2022/05/20 02:49:09;;;;;;;6.97;6.27;;;16.70;99.90;;;;;;5082817;28;21155;-86
2022/05/20 02:51:36;;;;;;;7.20;6.57;;;16.70;99.90;;;;;;5080756;28;20646;-85
2022/05/20 02:54:04;;;;;;;6.70;6.20;;;16.70;99.90;;;;;;5084383;28;20624;-85
2022/05/20 02:56:31;;;;;;;6.70;6.20;;;16.70;99.90;;;;;;5075201;28;20628;-86
2022/05/20 03:04:28;;;;;;;7.33;6.00;;;16.60;99.90;;;;;;5079833;28;20660;-86
2022/05/20 03:06:54;;;;;;;7.33;6.27;;;16.70;99.90;;;;;;5080136;28;21001;-86
2022/05/20 03:09:23;;;;;;;8.53;6.20;;;16.60;99.90;;;;;;5080166;28;21131;-86
2022/05/20 03:11:51;;;;;;;7.13;5.80;;;16.60;99.90;;;;;;5085838;28;20666;-85
2022/05/20 03:14:22;;;;;;;9.10;7.10;;;16.60;99.90;;;;;;5085401;28;20663;-86
2022/05/20 03:16:50;;;;;;;7.10;6.40;;;16.60;99.90;;;;;;5080367;28;20635;-86
2022/05/20 03:19:17;;;;;;;7.27;6.67;;;16.60;99.90;;;;;;5083660;28;20648;-86
2022/05/20 03:21:44;;;;;;;6.47;5.87;;;16.60;99.90;;;;;;5085251;28;20625;-86
2022/05/20 03:24:12;;;;;;;7.13;6.53;;;16.60;99.90;;;;;;5080970;28;21174;-86
2022/05/20 03:26:40;;;;;;;6.23;5.70;;;16.60;99.90;;;;;;5085619;28;20715;-86
2022/05/20 03:29:07;;;;;;;7.90;7.20;;;16.60;99.90;;;;;;5080737;28;20664;-85
2022/05/20 03:31:38;;;;;;;8.30;7.47;;;16.60;99.90;;;;;;5085696;28;20709;-86
2022/05/20 03:34:06;;;;;;;8.17;7.37;;;16.60;99.90;;;;;;5086604;28;20631;-86
2022/05/20 03:36:34;;;;;;;8.77;6.97;;;16.60;99.90;;;;;;5081635;28;20623;-86
2022/05/20 03:39:01;;;;;;;7.93;7.13;;;16.60;99.90;;;;;;5087543;28;20675;-86
2022/05/20 03:41:28;;;;;;;7.77;7.17;;;16.60;99.90;;;;;;5084477;28;21007;-86
2022/05/20 03:43:55;;;;;;;8.13;7.53;;;16.60;99.90;;;;;;5083886;28;20627;-86
2022/05/20 03:46:23;;;;;;;7.40;6.77;;;16.60;99.90;;;;;;5081928;28;20624;-86
2022/05/20 03:48:51;;;;;;;7.47;6.87;;;16.60;99.90;;;;;;5076242;28;21162;-86
2022/05/20 03:51:18;;;;;;;8.47;6.70;;;16.60;99.90;;;;;;5085574;28;20648;-86
2022/05/20 03:53:45;;;;;;;7.70;6.60;;;16.60;99.90;;;;;;5084431;28;20640;-86
2022/05/20 03:56:12;;;;;;;6.87;6.17;;;16.70;99.90;;;;;;5086324;28;20624;-86
2022/05/20 03:58:39;;;;;;;8.43;6.90;;;16.60;99.90;;;;;;5082566;28;20671;-85
2022/05/20 04:03:55;;;;;;;6.93;6.30;;;16.60;99.90;;;;;;5084382;28;21291;-86
2022/05/20 04:06:21;;;;;;;7.33;6.73;;;16.70;99.90;;;;;;5079108;28;20656;-86
2022/05/20 04:08:48;;;;;;;7.10;6.43;;;16.80;99.90;;;;;;5081680;28;20640;-86
2022/05/20 04:11:16;;;;;;;7.23;6.63;;;16.80;99.90;;;;;;5081941;28;20659;-86
2022/05/20 04:13:44;;;;;;;8.03;7.37;;;16.80;99.90;;;;;;5088697;28;20621;-86
2022/05/20 04:16:13;;;;;;;8.00;7.30;;;16.80;99.90;;;;;;5080631;28;20964;-86
2022/05/20 04:18:41;;;;;;;7.57;6.90;;;16.90;99.90;;;;;;5085200;28;20661;-86
2022/05/20 04:21:09;;;;;;;7.90;7.37;;;16.90;99.90;;;;;;5083603;28;20732;-86
2022/05/20 04:23:36;;;;;;;7.67;7.07;;;17.00;99.90;;;;;;5082279;28;20624;-86
2022/05/20 04:26:03;;;;;;;7.13;6.63;;;17.00;99.90;;;;;;5084488;28;20639;-86
2022/05/20 04:28:30;;;;;;;7.73;7.23;;;17.00;99.90;;;;;;5087564;28;20642;-85
2022/05/20 04:30:59;;;;;;;8.20;7.43;;;17.00;99.90;;;;;;5087215;28;20746;-86
2022/05/20 04:33:26;;;;;;;8.30;7.30;;;17.10;99.90;;;;;;5084242;28;20636;-86
2022/05/20 04:35:54;;;;;;;7.80;7.10;;;17.10;99.90;;;;;;5089072;28;20608;-86
2022/05/20 04:38:22;;;;;;;7.97;7.27;;;17.10;99.90;;;;;;5091971;28;20632;-86
2022/05/20 04:46:56;;;;;;;8.20;7.60;;;17.10;99.90;;;;;;5097895;28;20656;-86
2022/05/20 04:49:05;;;;;;;12.00;7.70;;;17.20;99.90;;;;;;5086123;28;20599;-86
2022/05/20 04:51:32;;;;;;;7.17;6.60;;;17.20;99.90;;;;;;5082410;28;20655;-86
2022/05/20 04:56:47;;;;;;;9.47;8.47;;;17.30;99.90;;;;;;5079787;28;20612;-86
2022/05/20 04:59:13;;;;;;;9.30;8.50;;;17.30;99.90;;;;;;5084993;28;20713;-86
2022/05/20 05:01:40;;;;;;;9.00;8.20;;;17.30;99.90;;;;;;5081094;28;20643;-86
2022/05/20 05:04:11;;;;;;;9.50;8.70;;;17.40;99.90;;;;;;5086245;28;20648;-86
2022/05/20 05:06:38;;;;;;;8.83;8.03;;;17.40;99.90;;;;;;5079839;28;21001;-86
2022/05/20 05:09:07;;;;;;;10.13;8.07;;;17.50;99.90;;;;;;5076455;28;20632;-84
2022/05/20 05:11:36;;;;;;;8.00;7.30;;;17.60;99.90;;;;;;5083115;28;20655;-84
2022/05/20 05:14:03;;;;;;;8.20;7.60;;;17.60;99.90;;;;;;5086295;28;20638;-85
2022/05/20 05:16:30;;;;;;;8.23;6.93;;;17.70;99.90;;;;;;5082693;28;20627;-84
2022/05/20 05:18:57;;;;;;;7.83;7.10;;;17.70;99.90;;;;;;5080995;28;20684;-84
2022/05/20 05:21:24;;;;;;;7.90;7.20;;;17.90;99.90;;;;;;5076227;28;20652;-84
2022/05/20 05:23:51;;;;;;;7.63;7.03;;;17.90;99.90;;;;;;5079624;28;21205;-84
2022/05/20 05:26:19;;;;;;;8.60;7.90;;;18.00;99.90;;;;;;5080092;28;20631;-84
2022/05/20 05:28:46;;;;;;;10.13;7.20;;;18.00;99.90;;;;;;5081240;28;20623;-84
2022/05/20 05:31:13;;;;;;;8.90;7.27;;;18.10;99.90;;;;;;5083899;28;20679;-84
2022/05/20 05:33:40;;;;;;;7.87;7.07;;;18.20;99.90;;;;;;5079587;28;20636;-84
2022/05/20 05:36:07;;;;;;;7.70;6.83;;;18.30;99.90;;;;;;5079699;28;20624;-84
2022/05/20 05:38:34;;;;;;;8.20;7.50;;;18.30;99.90;;;;;;5083471;28;21035;-84
2022/05/20 05:41:01;;;;;;;8.63;6.60;;;18.40;99.90;;;;;;5078594;28;20676;-84
2022/05/20 05:43:29;;;;;;;11.30;7.57;;;18.40;99.90;;;;;;5083857;28;20631;-84
2022/05/20 05:45:57;;;;;;;8.63;7.90;;;18.50;99.90;;;;;;5081447;28;20620;-84
2022/05/20 05:48:24;;;;;;;9.87;8.97;;;18.50;99.90;;;;;;5076171;28;20624;-84
2022/05/20 05:50:50;;;;;;;8.13;7.23;;;18.60;99.90;;;;;;5082731;28;20678;-84
2022/05/20 05:53:19;;;;;;;11.10;7.97;;;18.70;99.90;;;;;;5075639;28;20632;-84
2022/05/20 05:55:48;;;;;;;8.10;7.30;;;18.80;99.90;;;;;;5077915;28;20691;-84
2022/05/20 05:58:16;;;;;;;10.17;7.07;;;18.90;99.90;;;;;;5084753;28;20620;-84
2022/05/20 06:00:44;;;;;;;8.00;7.30;;;19.00;99.90;;;;;;5079562;28;20680;-84
2022/05/20 06:03:14;;;;;;;7.80;7.13;;;19.10;99.90;;;;;;5079512;28;20727;-84
2022/05/20 06:05:41;;;;;;;12.10;7.47;;;19.20;99.90;;;;;;5081486;28;20992;-84
2022/05/20 06:08:08;;;;;;;7.70;7.10;;;19.30;99.90;;;;;;5083105;28;20623;-84
2022/05/20 06:10:36;;;;;;;8.03;7.20;;;19.40;99.90;;;;;;5082831;28;21000;-84
2022/05/20 06:13:03;;;;;;;7.60;6.90;;;19.50;99.90;;;;;;5082567;28;20635;-84
2022/05/20 06:15:30;;;;;;;8.80;7.47;;;19.60;99.90;;;;;;5079342;28;20612;-84
2022/05/20 06:17:58;;;;;;;6.30;5.70;;;19.70;99.90;;;;;;5080989;28;20624;-84
2022/05/20 06:20:26;;;;;;;11.03;5.90;;;19.80;99.90;;;;;;5078166;28;20686;-84
2022/05/20 06:22:53;;;;;;;11.43;6.30;;;19.90;99.90;;;;;;5080203;28;20655;-84
2022/05/20 06:25:21;;;;;;;7.60;6.33;;;19.90;99.90;;;;;;5078694;28;20624;-85
2022/05/20 06:27:48;;;;;;;7.93;5.80;;;20.00;99.90;;;;;;5081961;28;20623;-85
2022/05/20 06:30:18;;;;;;;6.80;6.10;;;20.10;99.90;;;;;;5081839;28;20656;-84
2022/05/20 06:32:45;;;;;;;6.77;6.20;;;20.20;99.90;;;;;;5084249;28;20662;-84
2022/05/20 06:40:44;;;;;;;6.73;5.37;;;20.50;99.90;;;;;;5079566;28;20698;-84
2022/05/20 06:43:13;;;;;;;5.80;5.30;;;20.70;99.90;;;;;;5081493;28;20735;-84
2022/05/20 06:45:40;;;;;;;5.30;4.90;;;20.80;99.90;;;;;;5079378;28;20644;-84
2022/05/20 06:48:08;;;;;;;6.67;5.37;;;21.00;99.90;;;;;;5085240;28;20643;-84
2022/05/20 06:50:38;;;;;;;5.40;4.90;;;21.10;99.90;;;;;;5081522;28;20672;-84
2022/05/20 06:53:06;;;;;;;7.33;5.90;;;21.10;99.90;;;;;;5080805;27;20652;-84
2022/05/20 06:55:33;;;;;;;7.93;6.07;;;21.30;99.90;;;;;;5081276;28;20639;-84
2022/05/20 06:58:00;;;;;;;8.37;6.00;;;21.40;99.90;;;;;;5077329;28;20664;-84
2022/05/20 07:00:28;;;;;;;6.80;6.10;;;21.50;99.90;;;;;;5073994;28;20681;-84
2022/05/20 07:02:55;;;;;;;5.53;5.10;;;21.70;99.90;;;;;;5078057;28;20727;-84
2022/05/20 07:05:22;;;;;;;6.33;5.83;;;21.80;99.90;;;;;;5078201;28;20825;-85
2022/05/20 07:07:50;;;;;;;7.63;5.90;;;22.00;99.90;;;;;;5074712;28;20629;-85
2022/05/20 07:10:18;;;;;;;12.77;6.47;;;22.20;99.90;;;;;;5074630;28;20660;-84
2022/05/20 07:12:45;;;;;;;6.33;5.80;;;22.30;99.90;;;;;;5076811;28;20619;-84
2022/05/20 07:15:12;;;;;;;7.37;5.30;;;22.40;99.90;;;;;;5083006;28;20743;-84
2022/05/20 07:17:39;;;;;;;5.97;5.37;;;22.40;99.90;;;;;;5082380;28;20718;-85
2022/05/20 07:20:10;;;;;;;6.70;6.10;;;22.40;99.90;;;;;;5083322;28;20737;-85
2022/05/20 07:22:37;;;;;;;6.27;5.00;;;22.50;99.90;;;;;;5078460;28;20687;-85
2022/05/20 07:25:06;;;;;;;6.43;5.60;;;22.70;99.90;;;;;;5082546;28;21191;-84
2022/05/20 07:27:33;;;;;;;7.20;5.43;;;22.80;99.90;;;;;;5080601;28;20629;-84
2022/05/20 07:30:01;;;;;;;5.97;5.07;;;22.80;99.90;;;;;;5080431;28;20651;-86
2022/05/20 07:32:28;;;;;;;9.20;5.33;;;22.90;99.90;;;;;;5083430;28;20624;-84
2022/05/20 07:34:54;;;;;;;5.77;5.27;;;23.00;99.90;;;;;;5078976;28;20670;-85
2022/05/20 07:37:21;;;;;;;7.23;5.40;;;23.10;99.90;;;;;;5081153;28;21226;-85
2022/05/20 07:39:48;;;;;;;7.53;6.17;;;23.20;99.90;;;;;;5083343;28;21668;-85
2022/05/20 07:42:17;;;;;;;5.40;4.90;;;23.30;99.90;;;;;;5089617;28;20714;-85
2022/05/20 07:44:44;;;;;;;6.73;4.80;;;23.40;99.90;;;;;;5083378;28;20628;-85
2022/05/20 07:47:11;;;;;;;6.10;4.90;;;23.60;99.90;;;;;;5083416;28;20628;-85
2022/05/20 07:49:38;;;;;;;4.93;4.43;;;23.80;99.90;;;;;;5082051;28;20651;-85
2022/05/20 07:52:08;;;;;;;7.60;5.67;;;23.80;99.90;;;;;;5077252;28;21582;-85
2022/05/20 07:54:46;;;;;;;6.13;5.10;;;23.90;99.90;;;;;;5080719;28;20616;-84
2022/05/20 07:57:15;;;;;;;5.13;4.60;;;24.10;99.90;;;;;;5079537;28;20631;-84
2022/05/20 07:59:49;;;;;;;8.33;4.93;;;24.30;99.90;;;;;;5075045;28;21264;-84
2022/05/20 08:02:20;;;;;;;6.67;4.80;;;24.30;99.90;;;;;;5077446;28;20633;-84
2022/05/20 08:05:00;;;;;;;8.90;4.97;;;24.40;99.90;;;;;;5079182;28;20611;-84
2022/05/20 08:07:32;;;;;;;10.97;5.47;;;24.60;99.90;;;;;;5079741;28;21151;-84
2022/05/20 08:09:59;;;;;;;6.10;5.10;;;24.70;99.90;;;;;;5078666;28;20720;-84
2022/05/20 08:12:27;;;;;;;5.17;4.70;;;24.80;99.90;;;;;;5079207;28;20612;-85
2022/05/20 08:14:55;;;;;;;5.70;5.20;;;24.80;99.90;;;;;;5076319;28;21199;-85
2022/05/20 08:17:24;;;;;;;5.67;4.50;;;24.90;99.90;;;;;;5082280;28;20972;-84
2022/05/20 08:19:52;;;;;;;5.20;4.60;;;25.10;99.90;;;;;;5076665;28;20669;-84
2022/05/20 08:22:23;;;;;;;8.13;5.60;;;25.10;99.90;;;;;;5080649;28;21479;-85
2022/05/20 08:24:53;;;;;;;12.83;5.67;;;25.20;99.90;;;;;;5083500;28;20653;-84
2022/05/20 08:27:20;;;;;;;9.27;5.20;;;25.20;99.90;;;;;;5075669;28;20723;-85
2022/05/20 08:29:47;;;;;;;6.20;5.10;;;25.20;99.90;;;;;;5077601;28;20761;-84
2022/05/20 08:32:15;;;;;;;6.33;4.73;;;25.40;99.90;;;;;;5082042;28;20635;-85
2022/05/20 08:34:43;;;;;;;7.23;5.30;;;25.50;99.90;;;;;;5079731;28;20612;-85
2022/05/20 08:37:10;;;;;;;7.10;4.40;;;25.80;99.90;;;;;;5077664;28;20628;-84
2022/05/20 08:39:37;;;;;;;7.30;4.67;;;25.90;99.90;;;;;;5078946;28;20671;-84
2022/05/20 08:42:13;;;;;;;9.17;5.47;;;26.00;99.90;;;;;;5079424;28;20634;-84
2022/05/20 08:44:41;;;;;;;6.67;5.57;;;26.00;99.90;;;;;;5076617;28;20616;-84
2022/05/20 08:47:20;;;;;;;5.57;5.07;;;26.10;99.90;;;;;;5082614;28;20619;-84
2022/05/20 08:49:47;;;;;;;4.80;4.17;;;26.20;99.90;;;;;;5075931;28;21056;-84
2022/05/20 08:52:13;;;;;;;8.87;5.80;;;26.30;99.90;;;;;;5074326;28;20990;-84
2022/05/20 08:54:42;;;;;;;4.60;3.90;;;26.40;99.90;;;;;;5082274;28;20613;-84
2022/05/20 08:57:19;;;;;;;5.30;4.47;;;26.50;99.90;;;;;;5078282;28;20640;-84
2022/05/20 08:59:46;;;;;;;5.00;3.97;;;26.70;99.90;;;;;;5080336;28;20676;-84
2022/05/20 09:02:13;;;;;;;8.63;4.60;;;26.80;99.90;;;;;;5083279;28;21003;-84
2022/05/20 09:04:41;;;;;;;24.43;5.37;;;27.00;99.90;;;;;;5084320;28;20629;-85
2022/05/20 09:07:10;;;;;;;6.87;4.03;;;27.10;99.90;;;;;;5078956;28;20618;-84
2022/05/20 09:09:44;;;;;;;5.10;4.60;;;27.20;99.90;;;;;;5079035;28;21345;-84
2022/05/20 09:12:23;;;;;;;5.20;4.80;;;27.20;99.90;;;;;;5083854;28;20626;-84
2022/05/20 09:17:46;;;;;;;5.23;4.73;;;27.30;99.90;;;;;;5081925;28;20580;-84
2022/05/20 09:20:18;;;;;;;11.10;4.23;;;27.40;99.90;;;;;;5078083;28;20679;-84
2022/05/20 09:22:55;;;;;;;6.70;4.87;;;27.50;99.90;;;;;;5080598;28;21580;-84
2022/05/20 09:25:26;;;;;;;7.80;4.97;;;27.60;98.90;;;;;;5083280;28;20640;-84
2022/05/20 09:27:57;;;;;;;4.10;3.70;;;27.70;98.80;;;;;;5080402;28;20628;-84
2022/05/20 09:30:24;;;;;;;5.57;4.33;;;27.80;96.80;;;;;;5078954;28;20647;-84
2022/05/20 09:33:01;;;;;;;4.57;4.17;;;27.90;95.20;;;;;;5084268;28;20624;-84
2022/05/20 09:35:35;;;;;;;5.43;3.80;;;28.00;90.60;;;;;;5077811;28;20628;-83
2022/05/20 09:38:10;;;;;;;6.53;3.70;;;28.10;89.50;;;;;;5086433;28;20607;-84
2022/05/20 09:40:41;;;;;;;5.20;3.60;;;28.10;87.10;;;;;;5079137;28;20799;-83
2022/05/20 09:43:10;;;;;;;5.43;4.03;;;28.10;87.60;;;;;;5086514;28;20631;-84
2022/05/20 09:45:44;;;;;;;5.03;3.80;;;28.20;88.20;;;;;;5084002;28;21536;-84
2022/05/20 09:48:16;;;;;;;5.10;4.00;;;28.30;87.00;;;;;;5083251;28;20623;-84
2022/05/20 09:50:58;;;;;;;3.90;3.60;;;28.30;86.30;;;;;;5084349;28;20648;-84
2022/05/20 09:53:33;;;;;;;6.17;3.87;;;28.30;82.40;;;;;;5081484;28;20624;-84
2022/05/20 09:56:18;;;;;;;6.93;4.60;;;28.30;83.00;;;;;;5080941;28;20726;-84
2022/05/20 09:58:59;;;;;;;5.50;4.33;;;28.40;83.10;;;;;;5082536;28;20625;-84
2022/05/20 10:01:29;;;;;;;4.73;3.60;;;28.40;80.30;;;;;;5082466;28;20674;-84
2022/05/20 10:04:02;;;;;;;4.37;3.80;;;28.50;81.40;;;;;;5086073;28;20999;-83
2022/05/20 10:06:35;;;;;;;9.70;3.83;;;28.50;80.30;;;;;;5078253;28;20625;-84
2022/05/20 10:09:10;;;;;;;13.47;5.13;;;28.50;79.60;;;;;;5082619;28;20608;-84
2022/05/20 10:11:49;;;;;;;4.90;4.17;;;28.60;79.30;;;;;;5082785;28;20651;-84
2022/05/20 10:14:20;;;;;;;6.60;4.07;;;28.60;77.00;;;;;;5082367;28;20666;-84
2022/05/20 10:16:54;;;;;;;7.57;4.20;;;28.60;78.50;;;;;;5076736;28;20628;-84
2022/05/20 10:19:30;;;;;;;4.40;3.60;;;28.80;79.70;;;;;;5082460;28;20619;-84
2022/05/20 10:22:03;;;;;;;6.87;4.50;;;28.80;79.10;;;;;;5082482;28;20659;-83
2022/05/20 10:24:46;;;;;;;4.27;3.87;;;28.90;80.40;;;;;;5078599;28;21169;-83
2022/05/20 10:27:20;;;;;;;6.37;3.67;;;29.10;74.90;;;;;;5083797;28;20632;-84
2022/05/20 10:32:49;;;;;;;3.40;3.10;;;29.20;70.60;;;;;;5081850;28;20706;-83
2022/05/20 10:35:20;;;;;;;7.43;3.60;;;29.30;69.30;;;;;;5081656;28;20695;-83
2022/05/20 10:38:09;;;;;;;4.23;3.50;;;29.50;70.00;;;;;;5078974;28;20632;-83
2022/05/20 10:40:44;;;;;;;7.33;4.30;;;29.70;68.80;;;;;;5060274;28;20669;-83
2022/05/20 10:43:25;;;;;;;4.10;3.80;;;29.80;67.10;;;;;;5085815;28;20987;-84
2022/05/20 10:49:06;;;;;;;4.43;3.57;;;30.20;64.80;;;;;;5080676;28;20618;-84
2022/05/20 10:52:01;;;;;;;8.67;4.23;;;30.40;63.50;;;;;;5079033;28;21076;-83
2022/05/20 10:54:59;;;;;;;4.93;4.17;;;30.50;60.60;;;;;;5083962;28;20627;-84
2022/05/20 10:57:47;;;;;;;4.07;3.40;;;30.60;59.30;;;;;;5078932;28;20722;-84
2022/05/20 11:00:18;;;;;;;6.13;3.73;;;30.80;57.10;;;;;;5082489;28;20692;-83
2022/05/20 11:03:11;;;;;;;5.83;3.83;;;30.80;56.70;;;;;;5084567;28;20629;-84
2022/05/20 11:05:46;;;;;;;5.80;3.73;;;31.00;58.10;;;;;;5084801;28;20639;-84
2022/05/20 11:08:26;;;;;;;5.47;3.70;;;31.20;57.10;;;;;;5081617;28;20623;-83
2022/05/20 11:11:10;;;;;;;5.67;4.07;;;31.40;55.60;;;;;;5081980;28;20653;-83
2022/05/20 11:13:51;;;;;;;5.23;3.57;;;31.70;55.90;;;;;;5084118;28;20963;-84
2022/05/20 11:16:37;;;;;;;6.73;4.10;;;31.90;55.20;;;;;;5083320;28;20620;-84
2022/05/20 11:19:44;;;;;;;5.13;3.93;;;32.10;54.40;;;;;;5083362;28;21197;-83
2022/05/20 11:22:43;;;;;;;7.77;4.10;;;32.30;54.20;;;;;;5078193;28;20651;-84
2022/05/20 11:25:26;;;;;;;7.20;3.53;;;32.50;52.80;;;;;;5076852;28;20643;-83
2022/05/20 11:28:14;;;;;;;12.80;3.90;;;32.50;51.10;;;;;;5077568;28;20613;-84
2022/05/20 11:30:59;;;;;;;5.20;3.63;;;32.60;51.10;;;;;;5080712;28;20655;-84
2022/05/20 11:33:45;;;;;;;5.80;4.17;;;32.80;51.70;;;;;;5082932;28;20627;-83
2022/05/20 11:36:27;;;;;;;6.80;3.50;;;33.00;49.80;;;;;;5078745;28;20669;-83
2022/05/20 11:39:26;;;;;;;5.73;3.13;;;33.30;49.40;;;;;;5083622;28;21238;-84
2022/05/20 11:42:11;;;;;;;6.80;3.70;;;33.40;49.50;;;;;;5080107;28;20709;-84
2022/05/20 11:44:54;;;;;;;6.97;4.00;;;33.60;48.50;;;;;;5080396;28;20639;-84
2022/05/20 11:47:51;;;;;;;6.67;3.63;;;33.80;46.80;;;;;;5071765;28;20785;-82
2022/05/20 11:50:47;;;;;;;4.57;3.53;;;33.90;47.60;;;;;;5081041;28;20654;-82
2022/05/20 11:53:20;;;;;;;5.33;3.27;;;33.90;46.90;;;;;;5083248;28;20631;-82
2022/05/20 11:55:52;;;;;;;5.33;3.97;;;34.00;45.60;;;;;;5082571;28;20616;-83
2022/05/20 11:58:35;;;;;;;3.80;3.50;;;34.20;45.50;;;;;;5083978;28;20634;-83
2022/05/20 12:01:06;;;;;;;5.73;3.60;;;34.40;45.80;;;;;;5078301;28;21250;-84
2022/05/20 12:04:06;;;;;;;4.53;3.10;;;34.60;44.70;;;;;;5073440;28;20644;-82
2022/05/20 12:06:25;;;;;;;6.73;3.93;;;35.00;45.00;;;;;;5077135;28;20708;-84
2022/05/20 12:08:54;;;;;;;4.90;3.83;;;35.10;44.30;;;;;;5074563;28;20640;-83
2022/05/20 12:11:27;;;;;;;4.47;3.20;;;35.10;43.80;;;;;;5074825;28;20649;-84
2022/05/20 12:14:05;;;;;;;4.40;3.27;;;35.10;42.90;;;;;;5080983;28;20635;-81
2022/05/20 12:16:34;;;;;;;5.60;3.40;;;35.20;42.40;;;;;;5086922;28;20616;-89
2022/05/20 12:24:39;;;;;;;5.63;3.27;;;35.80;42.90;;;;;;5096427;28;20658;-92
2022/05/20 12:27:37;;;;;;;9.40;3.50;;;36.00;42.10;;;;;;5089626;28;20675;-93
2022/05/20 12:30:08;;;;;;;4.73;3.73;;;36.10;41.00;;;;;;5091200;28;20619;-93
2022/05/20 12:32:55;;;;;;;5.60;3.33;;;36.20;40.80;;;;;;5092110;28;20197;-92
2022/05/20 12:35:29;;;;;;;4.93;3.27;;;36.30;40.10;;;;;;5082328;28;20652;-91
2022/05/20 12:37:59;;;;;;;5.93;3.63;;;36.40;39.60;;;;;;5083830;28;20201;-92
2022/05/20 12:40:56;;;;;;;7.50;3.60;;;36.30;39.70;;;;;;5086628;28;20659;-92
2022/05/20 12:43:46;;;;;;;9.60;4.00;;;36.50;39.20;;;;;;5086519;28;20209;-93
2022/05/20 12:46:20;;;;;;;5.63;3.77;;;35.70;39.30;;;;;;5094686;28;20638;-93
2022/05/20 12:48:55;;;;;;;5.00;3.60;;;36.10;39.30;;;;;;5100270;28;20615;-92
2022/05/20 12:51:22;;;;;;;4.30;3.60;;;36.30;39.40;;;;;;5092961;28;20626;-92
2022/05/20 12:53:50;;;;;;;5.27;3.83;;;36.50;39.60;;;;;;5101084;28;20627;-93
2022/05/20 12:56:31;;;;;;;9.03;4.23;;;36.80;38.90;;;;;;5101295;28;20637;-93
2022/05/20 12:59:19;;;;;;;5.90;3.40;;;37.00;38.30;;;;;;5093207;28;20643;-93
2022/05/20 13:01:53;;;;;;;7.80;3.37;;;37.10;38.40;;;;;;5090597;28;20205;-94
2022/05/20 13:04:24;;;;;;;6.47;3.67;;;37.40;37.60;;;;;;5088711;28;20229;-93
2022/05/20 13:06:52;;;;;;;4.73;3.47;;;37.60;38.00;;;;;;5084921;28;20195;-94
2022/05/20 13:09:26;;;;;;;6.25;3.65;;;37.70;37.90;;;;;;5087779;28;20695;-93
2022/05/20 13:11:55;;;;;;;5.53;3.30;;;37.90;37.40;;;;;;5086644;28;20212;-93
2022/05/20 13:14:30;;;;;;;5.13;3.38;;;38.20;37.10;;;;;;5085542;28;20309;-92
2022/05/20 13:17:01;;;;;;;8.40;3.47;;;38.40;35.90;;;;;;5087798;28;20208;-93
2022/05/20 13:19:40;;;;;;;7.07;3.40;;;38.40;35.90;;;;;;5085365;28;20198;-93
2022/05/20 13:22:09;;;;;;;4.45;3.55;;;38.60;35.80;;;;;;5086675;28;20280;-94
2022/05/20 13:24:38;;;;;;;5.85;3.67;;;38.50;35.60;;;;;;5087070;28;20906;-93
2022/05/20 13:27:10;;;;;;;10.90;3.80;;;38.60;36.90;;;;;;5085809;28;20194;-92
2022/05/20 13:29:39;;;;;;;7.72;3.53;;;38.90;35.40;;;;;;5084991;28;20209;-92
2022/05/20 13:32:20;;;;;;;3.85;3.53;;;39.00;35.20;;;;;;5085948;28;20267;-93
2022/05/20 13:34:51;;;;;;;3.88;3.40;;;39.10;35.60;;;;;;5083420;28;20222;-94
2022/05/20 13:37:26;;;;;;;4.43;3.03;;;39.40;35.30;;;;;;5082543;28;20570;-94
2022/05/20 13:39:57;;;;;;;5.25;2.95;;;39.50;34.60;;;;;;5092161;28;20696;-94
2022/05/20 13:42:25;;;;;;;4.75;3.72;;;39.60;34.70;;;;;;5087162;28;20208;-91
2022/05/20 13:44:54;;;;;;;7.13;3.65;;;39.60;34.30;;;;;;5085859;28;20222;-92